Time;durP1;ratioP1;P1;durP2;ratioP2;P2;SDS_P1;SDS_P2;PMS_P1;PMS_P2;Temp;Humidity;BMP_temperature;BMP_pressure;BME280_temperature;BME280_humidity;BME280_pressure;Samples;Min_cycle;Max_cycle;Signal;HPM_P1;HPM_P2
2021/11/29 00:02:24;;;;;;;13.55;11.48;;;;;;;9.93;100.00;99754.62;1694996;84;21034;-81
2021/11/29 00:04:51;;;;;;;15.20;11.88;;;;;;;9.94;100.00;99764.56;1703775;81;21070;-82
2021/11/29 00:07:19;;;;;;;15.58;11.95;;;;;;;9.94;100.00;99773.66;1724020;81;21089;-82
2021/11/29 00:09:47;;;;;;;16.32;12.55;;;;;;;9.93;100.00;99774.61;1723860;83;21081;-81
2021/11/29 00:12:15;;;;;;;16.37;13.08;;;;;;;9.92;100.00;99774.27;1723727;83;21049;-82
2021/11/29 00:14:42;;;;;;;19.77;13.25;;;;;;;9.93;100.00;99775.91;1723925;81;21528;-81
2021/11/29 00:17:11;;;;;;;18.00;14.18;;;;;;;9.95;100.00;99785.23;1723762;83;21049;-81
2021/11/29 00:19:39;;;;;;;19.12;15.18;;;;;;;9.98;100.00;99781.53;1723785;83;21057;-81
2021/11/29 00:22:08;;;;;;;16.87;14.43;;;;;;;10.01;100.00;99776.08;1723779;82;21007;-81
2021/11/29 00:24:35;;;;;;;20.48;15.78;;;;;;;10.02;100.00;99776.89;1723744;83;21654;-82
2021/11/29 00:27:04;;;;;;;20.75;17.12;;;;;;;10.03;100.00;99785.88;1723951;82;21085;-82
2021/11/29 00:29:33;;;;;;;22.13;17.35;;;;;;;10.03;100.00;99779.37;1723677;82;21097;-82
2021/11/29 00:32:00;;;;;;;23.07;18.50;;;;;;;10.05;100.00;99767.53;1723773;82;21081;-81
2021/11/29 00:34:27;;;;;;;21.40;17.77;;;;;;;10.04;100.00;99770.63;1723766;83;21621;-82
2021/11/29 00:36:56;;;;;;;23.98;19.80;;;;;;;10.05;100.00;99783.98;1723773;83;21065;-81
2021/11/29 00:39:24;;;;;;;26.62;20.32;;;;;;;10.06;100.00;99788.20;1723647;83;21006;-81
2021/11/29 00:41:52;;;;;;;27.40;22.10;;;;;;;10.07;100.00;99791.15;1723710;83;21061;-80
2021/11/29 00:44:19;;;;;;;29.15;22.82;;;;;;;10.10;100.00;99787.45;1724030;83;21117;-81
2021/11/29 00:46:46;;;;;;;28.92;22.55;;;;;;;10.10;100.00;99790.05;1723504;83;21010;-80
2021/11/29 00:49:14;;;;;;;27.85;22.93;;;;;;;10.09;100.00;99782.74;1723747;83;21229;-80
2021/11/29 00:51:42;;;;;;;29.60;23.07;;;;;;;10.10;100.00;99781.80;1724083;83;21558;-80
2021/11/29 00:54:10;;;;;;;31.15;24.23;;;;;;;10.13;100.00;99781.19;1728816;83;21062;-81
2021/11/29 00:56:38;;;;;;;32.75;24.25;;;;;;;10.15;100.00;99788.36;1729351;83;21120;-81
2021/11/29 00:59:05;;;;;;;35.65;25.65;;;;;;;10.14;100.00;99790.61;1729813;83;21080;-81
2021/11/29 01:01:33;;;;;;;39.65;27.95;;;;;;;10.17;100.00;99782.55;1729396;83;21152;-81
2021/11/29 01:04:00;;;;;;;39.23;25.95;;;;;;;10.18;100.00;99779.00;1729676;83;21097;-80
2021/11/29 01:06:27;;;;;;;39.08;27.48;;;;;;;10.19;100.00;99783.25;1729389;83;21600;-81
2021/11/29 01:08:55;;;;;;;39.63;28.17;;;;;;;10.21;100.00;99777.45;1729367;83;21073;-80
2021/11/29 01:11:23;;;;;;;36.03;27.25;;;;;;;10.23;100.00;99776.34;1729443;83;21487;-80
2021/11/29 01:13:50;;;;;;;38.08;26.35;;;;;;;10.24;100.00;99773.26;1729226;83;21178;-81
2021/11/29 01:16:17;;;;;;;34.23;26.23;;;;;;;10.24;100.00;99770.66;1729309;83;21025;-81
2021/11/29 01:18:45;;;;;;;33.98;25.68;;;;;;;10.23;100.00;99772.91;1728257;83;21106;-81
2021/11/29 01:21:12;;;;;;;33.45;25.80;;;;;;;10.22;100.00;99762.99;1704029;83;21122;-81
2021/11/29 01:23:40;;;;;;;28.85;23.80;;;;;;;10.23;100.00;99762.50;1704483;83;21096;-80
2021/11/29 01:26:07;;;;;;;32.42;23.25;;;;;;;10.21;100.00;99763.14;1729264;83;21150;-81
2021/11/29 01:28:34;;;;;;;31.12;22.60;;;;;;;10.20;100.00;99761.48;1729366;82;21016;-81
2021/11/29 01:31:01;;;;;;;29.07;22.30;;;;;;;10.20;100.00;99757.58;1729508;83;21532;-79
2021/11/29 01:33:28;;;;;;;27.80;21.62;;;;;;;10.20;100.00;99758.88;1729243;81;21096;-80
2021/11/29 01:35:56;;;;;;;29.00;22.85;;;;;;;10.16;100.00;99755.73;1729233;83;21578;-80
2021/11/29 01:38:24;;;;;;;25.10;20.72;;;;;;;10.12;100.00;99756.94;1728815;83;21150;-81
2021/11/29 01:40:52;;;;;;;27.52;21.17;;;;;;;10.10;100.00;99751.03;1701647;83;21359;-81
2021/11/29 01:43:20;;;;;;;26.60;20.50;;;;;;;10.06;100.00;99742.67;1729160;83;21041;-82
2021/11/29 01:45:51;;;;;;;26.52;20.50;;;;;;;10.05;100.00;99745.42;1729190;83;21040;-80
2021/11/29 01:48:22;;;;;;;28.45;20.27;;;;;;;10.06;100.00;99743.17;1726008;83;21076;-81
2021/11/29 01:50:54;;;;;;;25.15;20.77;;;;;;;10.07;100.00;99740.92;1729215;83;21242;-82
2021/11/29 01:53:23;;;;;;;26.07;20.90;;;;;;;10.08;100.00;99733.46;1726165;83;21056;-81
2021/11/29 01:55:52;;;;;;;24.47;20.12;;;;;;;10.10;100.00;99732.37;1723600;83;21141;-81
2021/11/29 01:58:20;;;;;;;27.30;19.77;;;;;;;10.12;100.00;99732.72;1723754;83;21033;-81
2021/11/29 02:00:51;;;;;;;26.45;20.40;;;;;;;10.14;100.00;99738.59;1723858;83;21124;-82
2021/11/29 02:03:18;;;;;;;;;;;;;;;10.14;100.00;99735.98;1722424;83;21495;-84
2021/11/29 02:05:45;;;;;;;27.13;19.60;;;;;;;10.15;100.00;99722.02;1723907;83;20243;-83
2021/11/29 02:08:13;;;;;;;26.60;20.85;;;;;;;10.13;100.00;99721.36;1723868;83;21089;-84
2021/11/29 02:10:41;;;;;;;29.05;20.60;;;;;;;10.15;100.00;99715.52;1723722;82;21061;-83
2021/11/29 02:13:09;;;;;;;26.33;20.90;;;;;;;10.16;100.00;99710.66;1695641;83;21073;-84
2021/11/29 02:15:40;;;;;;;30.12;22.20;;;;;;;10.16;100.00;99714.11;1723759;82;21992;-81
2021/11/29 02:18:07;;;;;;;28.15;21.45;;;;;;;10.16;100.00;99708.91;1723890;83;21072;-82
2021/11/29 02:20:37;;;;;;;27.37;22.50;;;;;;;10.16;100.00;99704.16;1723084;83;21021;-81
2021/11/29 02:23:06;;;;;;;32.05;23.52;;;;;;;10.19;100.00;99709.11;1695286;83;21716;-81
2021/11/29 02:25:34;;;;;;;34.35;23.83;;;;;;;10.16;100.00;99703.70;1723551;82;21061;-81
2021/11/29 02:28:01;;;;;;;31.85;23.20;;;;;;;10.12;100.00;99711.91;1695233;83;21057;-81
2021/11/29 02:30:28;;;;;;;34.73;22.80;;;;;;;10.06;100.00;99701.55;1723693;83;21132;-81
2021/11/29 02:32:56;;;;;;;33.35;23.07;;;;;;;10.02;100.00;99707.96;1724169;83;21508;-81
2021/11/29 02:35:23;;;;;;;31.97;22.40;;;;;;;10.00;100.00;99702.09;1723653;82;21064;-82
2021/11/29 02:37:52;;;;;;;29.67;21.57;;;;;;;9.98;100.00;99692.30;1723467;83;21541;-81
2021/11/29 02:40:19;;;;;;;35.63;23.57;;;;;;;9.93;100.00;99690.91;1723627;83;21157;-80
2021/11/29 02:42:47;;;;;;;33.25;21.68;;;;;;;9.93;100.00;99687.00;1723865;83;21558;-81
2021/11/29 02:45:17;;;;;;;32.40;22.98;;;;;;;9.89;100.00;99685.64;1723732;83;21035;-82
2021/11/29 02:47:43;;;;;;;33.20;23.20;;;;;;;9.88;100.00;99681.39;1723640;82;21046;-81
2021/11/29 02:50:10;;;;;;;38.33;23.95;;;;;;;9.87;100.00;99677.14;1723929;82;21058;-81
2021/11/29 02:52:37;;;;;;;37.38;23.87;;;;;;;9.87;100.00;99679.75;1723747;83;21884;-81
2021/11/29 02:55:06;;;;;;;32.13;22.48;;;;;;;9.85;100.00;99682.14;1723650;83;21014;-81
2021/11/29 02:57:33;;;;;;;35.20;22.82;;;;;;;9.82;100.00;99671.53;1723812;83;21093;-82
2021/11/29 03:00:00;;;;;;;30.80;21.82;;;;;;;9.81;100.00;99670.38;1723924;83;21172;-82
2021/11/29 03:02:31;;;;;;;33.53;21.73;;;;;;;9.79;100.00;99679.59;1723592;82;21999;-83
2021/11/29 03:04:57;;;;;;;29.82;21.90;;;;;;;9.78;100.00;99677.48;1691701;83;21057;-81
2021/11/29 03:07:24;;;;;;;28.38;21.23;;;;;;;9.78;100.00;99665.78;1724063;83;21026;-81
2021/11/29 03:09:52;;;;;;;27.80;20.82;;;;;;;9.79;100.00;99670.48;1723866;82;21037;-81
2021/11/29 03:12:19;;;;;;;27.75;21.17;;;;;;;9.81;100.00;99676.88;1723798;83;21070;-81
2021/11/29 03:14:46;;;;;;;28.27;20.88;;;;;;;9.82;100.00;99674.13;1723967;83;21029;-81
2021/11/29 03:17:13;;;;;;;30.17;21.65;;;;;;;9.82;100.00;99668.09;1723467;83;21101;-80
2021/11/29 03:19:42;;;;;;;27.67;20.68;;;;;;;9.82;100.00;99661.59;1723772;83;21029;-81
2021/11/29 03:22:12;;;;;;;30.60;21.15;;;;;;;9.81;100.00;99647.78;1723736;83;21017;-81
2021/11/29 03:24:46;;;;;;;29.00;20.45;;;;;;;9.83;100.00;99658.05;1723964;83;21033;-81
2021/11/29 03:27:10;;;;;;;30.23;20.72;;;;;;;9.84;100.00;99663.13;1721867;83;21112;-81
2021/11/29 03:29:37;;;;;;;32.38;22.58;;;;;;;9.84;100.00;99663.59;1724063;83;21790;-80
2021/11/29 03:32:06;;;;;;;32.17;21.73;;;;;;;9.85;100.00;99665.23;1723499;83;21551;-81
2021/11/29 03:34:33;;;;;;;34.13;22.15;;;;;;;9.85;100.00;99677.78;1723878;83;21565;-80
2021/11/29 03:37:00;;;;;;;38.65;25.02;;;;;;;9.87;100.00;99675.03;1723528;83;21077;-81
2021/11/29 03:39:29;;;;;;;40.10;23.22;;;;;;;9.89;100.00;99684.83;1723865;83;21641;-80
2021/11/29 03:42:00;;;;;;;36.13;22.93;;;;;;;9.90;100.00;99689.89;1723894;83;21491;-80
2021/11/29 03:44:28;;;;;;;;;;;;;;;9.92;100.00;99685.84;1725723;83;21023;-84
2021/11/29 03:46:55;;;;;;;43.78;24.07;;;;;;;9.92;100.00;99678.89;1720464;82;20181;-84
2021/11/29 03:49:24;;;;;;;46.15;25.15;;;;;;;9.94;100.00;99680.05;1718792;82;21572;-84
2021/11/29 03:51:51;;;;;;;47.85;27.75;;;;;;;9.97;100.00;99670.68;1691059;83;21065;-81
2021/11/29 03:54:19;;;;;;;52.48;29.10;;;;;;;10.00;100.00;99654.79;1715741;83;21132;-81
2021/11/29 03:56:47;;;;;;;63.92;31.87;;;;;;;10.01;100.00;99646.03;1715666;83;21576;-80
2021/11/29 03:59:14;;;;;;;62.60;34.23;;;;;;;10.04;100.00;99650.14;1715875;83;21054;-81
2021/11/29 04:01:43;;;;;;;56.00;32.05;;;;;;;10.00;100.00;99652.68;1716086;83;21019;-81
2021/11/29 04:04:10;;;;;;;69.10;37.13;;;;;;;9.99;100.00;99648.43;1686557;83;21089;-82
2021/11/29 04:06:38;;;;;;;66.22;35.00;;;;;;;9.96;100.00;99652.13;1723442;81;21156;-86
2021/11/29 04:09:06;;;;;;;76.25;38.30;;;;;;;9.95;100.00;99651.78;1724336;81;21078;-84
2021/11/29 04:11:33;;;;;;;71.37;35.50;;;;;;;10.03;100.00;99657.59;1724244;81;21559;-82
2021/11/29 04:14:01;;;;;;;70.12;36.70;;;;;;;10.07;100.00;99657.68;1717128;83;21036;-84
2021/11/29 04:16:30;;;;;;;71.95;36.30;;;;;;;10.16;100.00;99648.23;1709380;83;21070;-84
2021/11/29 04:18:58;;;;;;;72.47;36.90;;;;;;;10.23;100.00;99651.92;1682796;83;21113;-84
2021/11/29 04:21:25;;;;;;;72.27;37.93;;;;;;;10.30;100.00;99663.42;1719395;83;21038;-84
2021/11/29 04:23:53;;;;;;;80.42;41.98;;;;;;;10.51;100.00;99670.32;1721633;83;21028;-84
2021/11/29 04:26:20;;;;;;;80.17;41.77;;;;;;;10.75;100.00;99670.36;1690245;83;21060;-84
2021/11/29 04:28:50;;;;;;;77.40;40.23;;;;;;;10.88;100.00;99663.06;1700735;82;20973;-84
2021/11/29 04:31:18;;;;;;;81.22;42.75;;;;;;;10.96;100.00;99670.19;1698311;83;21161;-83
2021/11/29 04:33:45;;;;;;;72.58;39.38;;;;;;;10.98;100.00;99659.95;1694418;84;21090;-82
2021/11/29 04:36:13;;;;;;;76.97;42.27;;;;;;;10.98;100.00;99663.87;1705884;84;21082;-83
2021/11/29 04:38:40;;;;;;;80.32;44.33;;;;;;;10.92;100.00;99652.72;1705683;84;21089;-83
2021/11/29 04:41:07;;;;;;;78.97;44.30;;;;;;;10.82;100.00;99649.30;1723738;81;21063;-84
2021/11/29 04:43:35;;;;;;;87.17;46.45;;;;;;;10.74;100.00;99647.39;1705233;81;21084;-82
2021/11/29 04:46:03;;;;;;;75.42;44.35;;;;;;;10.66;100.00;99643.36;1674369;83;48605;-84
2021/11/29 04:48:30;;;;;;;84.22;46.15;;;;;;;10.56;100.00;99643.38;1672944;85;21101;-84
2021/11/29 04:50:58;;;;;;;83.00;47.48;;;;;;;10.49;100.00;99652.70;1677302;84;21724;-84
2021/11/29 04:53:25;;;;;;;85.05;47.58;;;;;;;10.42;100.00;99657.63;1701019;84;21029;-84
2021/11/29 04:55:52;;;;;;;70.78;42.70;;;;;;;10.38;100.00;99646.67;1701205;84;21144;-83
2021/11/29 04:58:19;;;;;;;61.28;38.38;;;;;;;10.38;100.00;99645.38;1700944;84;21073;-84
2021/11/29 05:00:51;;;;;;;63.23;39.20;;;;;;;10.34;100.00;99642.70;1701015;84;21106;-85
2021/11/29 05:03:17;;;;;;;51.83;33.55;;;;;;;10.31;100.00;99637.75;1697151;84;21400;-83
2021/11/29 05:05:44;;;;;;;51.02;32.50;;;;;;;10.28;100.00;99634.14;1671333;84;21113;-84
2021/11/29 05:08:11;;;;;;;46.85;31.48;;;;;;;10.27;100.00;99633.80;1700876;84;21149;-84
2021/11/29 05:10:40;;;;;;;41.60;29.90;;;;;;;10.26;100.00;99633.45;1700643;84;20969;-83
2021/11/29 05:13:07;;;;;;;39.98;27.30;;;;;;;10.24;100.00;99637.50;1670560;84;21112;-84
2021/11/29 05:15:38;;;;;;;36.45;24.57;;;;;;;10.22;100.00;99642.01;1700892;83;21076;-84
2021/11/29 05:18:08;;;;;;;34.92;25.00;;;;;;;10.22;100.00;99632.91;1673369;84;21049;-83
2021/11/29 05:20:36;;;;;;;31.70;22.22;;;;;;;10.23;100.00;99628.05;1672473;84;21848;-84
2021/11/29 05:23:03;;;;;;;25.65;20.35;;;;;;;10.22;100.00;99625.56;1672445;84;21558;-83
2021/11/29 05:25:30;;;;;;;25.82;19.92;;;;;;;10.24;100.00;99630.16;1672258;84;21049;-83
2021/11/29 05:27:57;;;;;;;27.20;20.45;;;;;;;10.23;100.00;99624.14;1698316;84;21602;-83
2021/11/29 05:30:25;;;;;;;25.52;19.65;;;;;;;10.23;100.00;99632.41;1674277;84;21078;-84
2021/11/29 05:32:53;;;;;;;22.42;19.02;;;;;;;10.24;100.00;99623.66;1700840;84;21148;-83
2021/11/29 05:35:20;;;;;;;23.57;18.85;;;;;;;10.25;100.00;99615.70;1659250;85;20974;-84
2021/11/29 05:37:47;;;;;;;21.10;18.07;;;;;;;10.24;100.00;99617.98;1672057;85;21077;-84
2021/11/29 05:40:15;;;;;;;24.87;22.13;;;;;;;10.26;100.00;99607.43;1672153;85;21052;-83
2021/11/29 05:42:46;;;;;;;21.85;19.52;;;;;;;10.26;100.00;99610.03;1676835;84;21097;-83
2021/11/29 05:45:14;;;;;;;28.80;25.68;;;;;;;10.25;100.00;99613.09;1670877;84;21503;-85
2021/11/29 05:47:43;;;;;;;29.57;24.85;;;;;;;10.26;100.00;99617.84;1701140;84;21613;-84
2021/11/29 05:50:13;;;;;;;27.13;24.32;;;;;;;10.28;100.00;99630.70;1692633;84;21045;-84
2021/11/29 05:52:41;;;;;;;23.30;20.82;;;;;;;10.28;100.00;99626.80;1686003;83;21056;-84
2021/11/29 05:55:11;;;;;;;21.45;18.75;;;;;;;10.26;100.00;99626.95;1727449;83;21077;-83
2021/11/29 05:57:40;;;;;;;19.37;17.27;;;;;;;10.25;100.00;99621.39;1729398;83;21110;-84
2021/11/29 06:00:12;;;;;;;19.85;17.75;;;;;;;10.25;100.00;99631.80;1670863;84;21061;-83
2021/11/29 06:02:41;;;;;;;22.05;17.73;;;;;;;10.24;100.00;99619.75;1696954;84;21552;-83
2021/11/29 06:05:10;;;;;;;20.02;17.15;;;;;;;10.24;100.00;99613.24;1697266;84;21998;-83
2021/11/29 06:07:38;;;;;;;18.85;16.27;;;;;;;10.25;100.00;99609.69;1696957;84;21105;-84
2021/11/29 06:10:10;;;;;;;18.73;15.55;;;;;;;10.27;100.00;99603.88;1696496;84;21109;-85
2021/11/29 06:12:39;;;;;;;16.80;15.15;;;;;;;10.31;100.00;99605.72;1670427;84;21121;-83
2021/11/29 06:15:08;;;;;;;16.35;14.65;;;;;;;10.31;100.00;99602.63;1697923;83;21464;-83
2021/11/29 06:17:38;;;;;;;17.20;15.40;;;;;;;10.34;100.00;99598.92;1728746;83;21171;-83
2021/11/29 06:20:06;;;;;;;17.05;14.58;;;;;;;10.34;100.00;99601.05;1728699;83;21090;-83
2021/11/29 06:22:34;;;;;;;17.42;15.63;;;;;;;10.34;100.00;99606.27;1729108;83;21142;-81
2021/11/29 06:25:03;;;;;;;19.62;15.28;;;;;;;10.35;100.00;99614.41;1714056;83;21088;-82
2021/11/29 06:27:31;;;;;;;16.87;15.08;;;;;;;10.36;100.00;99609.55;1711959;83;21044;-82
2021/11/29 06:29:58;;;;;;;21.00;17.32;;;;;;;10.38;100.00;99604.23;1712285;83;21021;-79
2021/11/29 06:32:26;;;;;;;26.33;19.25;;;;;;;10.39;100.00;99585.88;1721766;82;21050;-80
2021/11/29 06:34:55;;;;;;;26.87;19.57;;;;;;;10.40;100.00;99588.81;1719507;83;21947;-82
2021/11/29 06:37:26;;;;;;;28.20;19.87;;;;;;;10.44;100.00;99588.55;1717591;83;21039;-82
2021/11/29 06:39:57;;;;;;;21.00;16.62;;;;;;;10.49;100.00;99577.23;1710782;83;21185;-80
2021/11/29 06:42:24;;;;;;;23.47;18.25;;;;;;;10.53;100.00;99571.60;1717480;83;21063;-79
2021/11/29 06:44:52;;;;;;;25.40;18.42;;;;;;;10.56;100.00;99580.91;1717020;83;21031;-79
2021/11/29 06:47:19;;;;;;;17.42;15.35;;;;;;;10.56;100.00;99578.30;1717048;83;21589;-81
2021/11/29 06:49:47;;;;;;;20.32;15.13;;;;;;;10.59;100.00;99580.64;1716853;83;21087;-79
2021/11/29 06:52:16;;;;;;;17.95;15.10;;;;;;;10.62;100.00;99581.64;1717270;83;21520;-80
2021/11/29 06:54:46;;;;;;;16.85;14.38;;;;;;;10.63;100.00;99577.27;1717210;83;21590;-80
2021/11/29 06:57:14;;;;;;;16.23;14.53;;;;;;;10.62;100.00;99573.83;1713642;83;21521;-81
2021/11/29 06:59:41;;;;;;;16.37;14.35;;;;;;;10.63;100.00;99580.68;1714065;83;21186;-80
2021/11/29 07:02:10;;;;;;;17.48;14.93;;;;;;;10.60;100.00;99580.14;1717181;83;21528;-79
2021/11/29 07:04:38;;;;;;;19.42;15.63;;;;;;;10.56;100.00;99572.64;1717392;83;21105;-82
2021/11/29 07:07:06;;;;;;;17.60;15.80;;;;;;;10.55;100.00;99579.27;1692519;83;21897;-80
2021/11/29 07:09:34;;;;;;;18.85;15.30;;;;;;;10.53;100.00;99573.40;1725639;83;21029;-85
2021/11/29 07:12:01;;;;;;;16.87;15.10;;;;;;;10.53;100.00;99573.40;1729510;83;21158;-85
2021/11/29 07:14:30;;;;;;;19.52;16.32;;;;;;;10.51;100.00;99559.70;1729151;83;21076;-83
2021/11/29 07:16:57;;;;;;;18.30;16.40;;;;;;;10.50;100.00;99548.94;1729338;83;20982;-82
2021/11/29 07:19:24;;;;;;;18.20;16.02;;;;;;;10.49;100.00;99545.53;1729546;83;21573;-84
2021/11/29 07:21:53;;;;;;;17.95;16.00;;;;;;;10.50;100.00;99560.66;1729269;83;21903;-83
2021/11/29 07:24:20;;;;;;;17.37;15.50;;;;;;;10.49;100.00;99571.56;1729360;83;21146;-82
2021/11/29 07:26:47;;;;;;;19.82;17.27;;;;;;;10.48;100.00;99569.08;1729446;83;21037;-83
2021/11/29 07:29:15;;;;;;;19.62;16.77;;;;;;;10.47;100.00;99563.53;1729627;83;21093;-84
2021/11/29 07:31:44;;;;;;;21.37;18.30;;;;;;;10.46;100.00;99561.88;1729648;83;21550;-84
2021/11/29 07:34:11;;;;;;;19.40;17.40;;;;;;;10.46;100.00;99555.38;1729774;83;21076;-83
2021/11/29 07:36:39;;;;;;;19.62;17.55;;;;;;;10.47;100.00;99552.66;1729210;83;21151;-83
2021/11/29 07:39:10;;;;;;;18.00;16.02;;;;;;;10.49;100.00;99547.30;1729096;83;21038;-83
2021/11/29 07:41:38;;;;;;;17.92;16.12;;;;;;;10.51;100.00;99546.69;1729171;83;21030;-78
2021/11/29 07:44:05;;;;;;;19.10;16.10;;;;;;;10.54;100.00;99542.02;1729460;83;21053;-82
2021/11/29 07:46:32;;;;;;;17.10;15.28;;;;;;;10.56;100.00;99535.36;1729222;83;21096;-81
2021/11/29 07:49:00;;;;;;;16.23;14.63;;;;;;;10.60;100.00;99531.52;1729312;83;21110;-82
2021/11/29 07:51:28;;;;;;;16.62;14.53;;;;;;;10.65;100.00;99538.91;1729031;83;21042;-83
2021/11/29 07:53:56;;;;;;;15.40;13.95;;;;;;;10.64;100.00;99541.97;1729405;83;21080;-81
2021/11/29 07:56:23;;;;;;;15.65;13.35;;;;;;;10.65;100.00;99536.30;1727273;82;21542;-83
2021/11/29 07:58:50;;;;;;;16.10;12.65;;;;;;;10.66;100.00;99527.04;1727167;83;20962;-81
2021/11/29 08:01:17;;;;;;;16.57;14.60;;;;;;;10.66;100.00;99517.93;1727385;82;21132;-81
2021/11/29 08:03:44;;;;;;;16.93;14.05;;;;;;;10.69;100.00;99514.22;1726984;83;21054;-82
2021/11/29 08:06:13;;;;;;;16.85;14.50;;;;;;;10.71;100.00;99513.59;1727460;82;21101;-81
2021/11/29 08:08:43;;;;;;;16.77;14.68;;;;;;;10.73;100.00;99509.88;1702097;83;21037;-82
2021/11/29 08:11:11;;;;;;;14.93;13.38;;;;;;;10.73;100.00;99505.98;1727442;82;21037;-85
2021/11/29 08:13:40;;;;;;;14.95;13.03;;;;;;;10.71;100.00;99497.98;1727147;82;22167;-83
2021/11/29 08:16:07;;;;;;;15.18;12.98;;;;;;;10.70;100.00;99503.64;1727434;82;21124;-82
2021/11/29 08:18:34;;;;;;;15.95;13.22;;;;;;;10.66;100.00;99504.91;1727020;82;21817;-82
2021/11/29 08:21:02;;;;;;;13.40;11.97;;;;;;;10.66;100.00;99491.89;1727051;82;21097;-82
2021/11/29 08:23:30;;;;;;;13.15;11.90;;;;;;;10.68;100.00;99489.97;1701993;83;21072;-84
2021/11/29 08:25:57;;;;;;;14.00;12.00;;;;;;;10.67;100.00;99485.73;1727397;83;21578;-81
2021/11/29 08:28:24;;;;;;;12.40;10.95;;;;;;;10.67;100.00;99487.50;1702319;82;21120;-82
2021/11/29 08:30:54;;;;;;;13.18;11.80;;;;;;;10.66;100.00;99492.36;1727172;83;21780;-81
2021/11/29 08:33:21;;;;;;;14.65;11.63;;;;;;;10.67;100.00;99484.42;1727310;83;21503;-82
2021/11/29 08:35:49;;;;;;;15.50;11.20;;;;;;;10.71;100.00;99468.84;1727052;82;21053;-81
2021/11/29 08:38:18;;;;;;;12.47;10.28;;;;;;;10.73;100.00;99462.20;1645837;83;22090;-81
2021/11/29 08:40:46;;;;;;;14.75;10.90;;;;;;;10.76;100.00;99450.68;1699458;83;21042;-82
2021/11/29 08:43:18;;;;;;;11.55;10.48;;;;;;;10.79;100.00;99450.37;1703092;82;21464;-82
2021/11/29 08:45:49;;;;;;;10.48;9.48;;;;;;;10.80;100.00;99444.20;1694093;82;21116;-82
2021/11/29 08:48:17;;;;;;;13.43;10.08;;;;;;;10.81;100.00;99428.92;1738541;82;21563;-85
2021/11/29 08:50:48;;;;;;;10.95;9.55;;;;;;;10.79;100.00;99429.08;1709290;82;21711;-83
2021/11/29 08:53:20;;;;;;;10.30;9.25;;;;;;;10.76;100.00;99424.14;1709261;84;21112;-83
2021/11/29 08:55:48;;;;;;;10.63;8.83;;;;;;;10.73;100.00;99423.95;1725589;82;21043;-83
2021/11/29 08:58:16;;;;;;;9.63;8.63;;;;;;;10.70;100.00;99420.33;1723105;81;21072;-83
2021/11/29 09:00:47;;;;;;;12.10;9.63;;;;;;;10.69;100.00;99410.91;1696856;81;21099;-82
2021/11/29 09:03:15;;;;;;;9.88;8.88;;;;;;;10.69;100.00;99417.42;1703488;83;21838;-82
2021/11/29 09:05:44;;;;;;;11.30;8.98;;;;;;;10.70;100.00;99415.63;1711264;83;20995;-82
2021/11/29 09:08:13;;;;;;;12.28;9.58;;;;;;;10.70;100.00;99415.63;1700216;83;21208;-81
2021/11/29 09:10:45;;;;;;;11.55;9.50;;;;;;;10.68;100.00;99411.03;1713794;83;21038;-82
2021/11/29 09:13:13;;;;;;;12.65;9.55;;;;;;;10.67;100.00;99394.61;1713133;83;21614;-82
2021/11/29 09:15:42;;;;;;;11.10;9.88;;;;;;;10.70;100.00;99396.09;1714316;83;21835;-81
2021/11/29 09:18:09;;;;;;;10.90;9.80;;;;;;;10.72;100.00;99381.96;1722722;82;21125;-81
2021/11/29 09:20:38;;;;;;;11.30;9.33;;;;;;;10.73;100.00;99370.58;1714353;82;21109;-83
2021/11/29 09:23:06;;;;;;;12.50;9.88;;;;;;;10.71;100.00;99368.60;1714318;83;21058;-78
2021/11/29 09:25:41;;;;;;;14.00;9.95;;;;;;;10.69;100.00;99364.52;1689810;83;21005;-80
2021/11/29 09:28:05;;;;;;;11.30;9.98;;;;;;;10.67;100.00;99346.45;1681118;84;21875;-81
2021/11/29 09:30:32;;;;;;;12.18;9.85;;;;;;;10.65;100.00;99319.73;1723791;82;21081;-80
2021/11/29 09:32:59;;;;;;;12.65;9.43;;;;;;;10.67;100.00;99303.95;1723911;82;21120;-80
2021/11/29 09:35:26;;;;;;;12.03;9.28;;;;;;;10.68;100.00;99307.73;1693405;84;21101;-82
2021/11/29 09:37:54;;;;;;;12.88;9.40;;;;;;;10.71;100.00;99315.73;1723733;83;21041;-82
2021/11/29 09:40:25;;;;;;;13.32;9.25;;;;;;;10.71;100.00;99313.13;1693483;84;21092;-80
2021/11/29 09:42:53;;;;;;;10.58;9.48;;;;;;;10.72;100.00;99311.66;1720009;83;21085;-83
2021/11/29 09:45:24;;;;;;;12.00;9.50;;;;;;;10.76;100.00;99299.66;1723742;82;21589;-82
2021/11/29 09:47:52;;;;;;;11.13;8.77;;;;;;;10.78;100.00;99285.98;1690590;83;21063;-79
2021/11/29 09:50:19;;;;;;;13.30;9.73;;;;;;;10.78;100.00;99272.97;1698548;84;21093;-81
2021/11/29 09:52:47;;;;;;;21.90;9.60;;;;;;;10.79;100.00;99262.89;1698698;84;21849;-79
2021/11/29 09:55:20;;;;;;;14.80;9.60;;;;;;;10.81;100.00;99254.45;1698348;84;21077;-79
2021/11/29 09:57:48;;;;;;;14.98;9.70;;;;;;;10.84;100.00;99252.87;1695956;83;21065;-82
2021/11/29 10:00:26;;;;;;;12.50;8.65;;;;;;;10.85;100.00;99244.09;1723840;83;21112;-81
2021/11/29 10:02:53;;;;;;;12.73;10.20;;;;;;;10.84;100.00;99228.93;1721289;82;21684;-81
2021/11/29 10:05:23;;;;;;;19.32;14.60;;;;;;;10.85;100.00;99221.95;1711549;82;21204;-82
2021/11/29 10:07:51;;;;;;;21.73;12.80;;;;;;;10.85;100.00;99215.45;1691493;83;21088;-81
2021/11/29 10:10:29;;;;;;;23.62;11.28;;;;;;;10.86;100.00;99200.13;1677102;83;21452;-82
2021/11/29 10:13:04;;;;;;;19.10;11.35;;;;;;;10.88;100.00;99190.38;1701099;83;21077;-83
2021/11/29 10:15:41;;;;;;;17.60;11.70;;;;;;;10.89;100.00;99185.52;1667323;84;21041;-81
2021/11/29 10:18:20;;;;;;;16.32;10.60;;;;;;;10.91;100.00;99179.67;1669363;84;21796;-81
2021/11/29 10:21:06;;;;;;;18.77;9.45;;;;;;;10.94;100.00;99172.84;1695809;84;21030;-81
2021/11/29 10:23:42;;;;;;;13.22;8.43;;;;;;;10.96;100.00;99160.48;1695640;84;21601;-82
2021/11/29 10:26:25;;;;;;;15.40;8.23;;;;;;;10.99;100.00;99153.68;1670671;84;21108;-83
2021/11/29 10:29:04;;;;;;;12.50;7.17;;;;;;;11.01;100.00;99150.91;1710199;83;21042;-82
2021/11/29 10:31:39;;;;;;;13.28;7.80;;;;;;;11.05;100.00;99134.02;1704227;82;21428;-84
2021/11/29 10:34:16;;;;;;;12.07;7.15;;;;;;;11.08;100.00;99118.06;1718298;82;21037;-83
2021/11/29 10:36:52;;;;;;;15.08;7.42;;;;;;;11.10;100.00;99120.50;1687593;84;21589;-80
2021/11/29 10:39:24;;;;;;;13.30;7.67;;;;;;;11.13;100.00;99117.13;1659251;83;21084;-83
2021/11/29 10:41:58;;;;;;;12.70;7.55;;;;;;;11.13;100.00;99108.02;1721617;82;21664;-81
2021/11/29 10:44:36;;;;;;;14.68;8.03;;;;;;;11.13;100.00;99111.92;1643298;84;21093;-81
2021/11/29 10:47:10;;;;;;;19.23;8.43;;;;;;;11.11;100.00;99089.11;1678282;84;21065;-82
2021/11/29 10:49:49;;;;;;;12.23;7.62;;;;;;;11.09;100.00;99095.45;1711258;83;21054;-83
2021/11/29 10:52:23;;;;;;;12.45;7.67;;;;;;;11.07;100.00;99089.58;1657216;84;22350;-83
2021/11/29 10:54:52;;;;;;;11.65;7.40;;;;;;;11.05;100.00;99073.61;1684676;83;21076;-81
2021/11/29 10:57:21;;;;;;;15.80;7.85;;;;;;;11.07;100.00;99066.94;1704291;83;21401;-83
2021/11/29 10:59:51;;;;;;;10.75;7.90;;;;;;;11.08;100.00;99054.75;1706792;83;21068;-80
2021/11/29 11:02:25;;;;;;;13.65;7.97;;;;;;;11.08;100.00;99034.70;1688480;84;21773;-83
2021/11/29 11:05:08;;;;;;;15.00;7.97;;;;;;;11.12;100.00;99026.09;1652116;85;21660;-81
2021/11/29 11:07:38;;;;;;;16.42;8.10;;;;;;;11.16;100.00;99011.80;1668537;84;21033;-84
2021/11/29 11:10:14;;;;;;;11.83;7.50;;;;;;;11.23;100.00;99014.09;1677274;84;21132;-81
2021/11/29 11:12:56;;;;;;;12.18;6.47;;;;;;;11.24;100.00;98997.48;1706845;83;21071;-82
2021/11/29 11:15:23;;;;;;;11.05;7.65;;;;;;;11.25;100.00;98978.75;1694502;82;21050;-82
2021/11/29 11:17:53;;;;;;;14.45;7.95;;;;;;;11.27;100.00;98986.73;1694861;84;21554;-82
2021/11/29 11:20:22;;;;;;;11.10;7.28;;;;;;;11.28;100.00;98968.02;1697037;84;21006;-82